sensor_id;sensor_type;location;lat;lon;timestamp;pressure;altitude;pressure_sealevel;temperature;humidity
15558;BME280;7880;50.110;9.372;2023-03-14T00:02:09;8.83349568285048;;;8.812;100.0
15558;BME280;7880;50.110;9.372;2023-03-14T00:07:17;8.863748915330508;;;8.812;100.0
15558;BME280;7880;50.110;9.372;2023-03-14T00:12:21;8.899044366466114;;;8.812;100.0
15558;BME280;7880;50.110;9.372;2023-03-14T00:17:27;8.878875535499537;;;8.812;100.0
15558;BME280;7880;50.110;9.372;2023-03-14T00:22:28;8.899044366466114;;;8.812;100.0
15558;BME280;7880;50.110;9.372;2023-03-14T00:26:58;8.838537887536223;;;8.812;100.0
15558;BME280;7880;50.110;9.372;2023-03-14T00:31:59;8.91417099274695;;;8.875;100.0
15558;BME280;7880;50.110;9.372;2023-03-14T00:37:07;8.949466464255238;;;8.875;100.0
15558;BME280;7880;50.110;9.372;2023-03-14T00:42:08;8.924255411722697;;;8.875;100.0
15558;BME280;7880;50.110;9.372;2023-03-14T00:47:13;8.91417099274695;;;8.875;100.0
15558;BME280;7880;50.110;9.372;2023-03-14T00:52:16;8.934339831862598;;;8.875;100.0
15558;BME280;7880;50.110;9.372;2023-03-14T00:57:23;8.929297621647128;;;8.875;100.0
15558;BME280;7880;50.110;9.372;2023-03-14T01:02:25;8.934339831862598;;;8.875;100.0
15558;BME280;7880;50.110;9.372;2023-03-14T01:07:30;8.989804163441296;;;8.937;100.0
15558;BME280;7880;50.110;9.372;2023-03-14T01:12:32;9.015015234891326;;;9.0;100.0
15558;BME280;7880;50.110;9.372;2023-03-14T01:17:38;8.959550887305522;;;8.937;100.0
15558;BME280;7880;50.110;9.372;2023-03-14T01:22:41;8.88895995040075;;;8.875;100.0
15558;BME280;7880;50.110;9.372;2023-03-14T01:27:44;8.88895995040075;;;8.875;100.0
15558;BME280;7880;50.110;9.372;2023-03-14T01:32:50;8.868791121762479;;;8.812;100.0
15558;BME280;7880;50.110;9.372;2023-03-14T01:37:53;8.843580092513003;;;8.812;100.0
15558;BME280;7880;50.110;9.372;2023-03-14T01:42:57;8.823411274352111;;;8.75;100.0
15558;BME280;7880;50.110;9.372;2023-03-14T01:48:01;8.843580092513003;;;8.812;100.0
15558;BME280;7880;50.110;9.372;2023-03-14T01:54:01;8.828453478455776;;;8.75;100.0
15558;BME280;7880;50.110;9.372;2023-03-14T01:59:01;8.798200258199358;;;8.75;100.0
15558;BME280;7880;50.110;9.372;2023-03-14T02:04:07;8.752820447459817;;;8.687;100.0
15558;BME280;7880;50.110;9.372;2023-03-14T02:09:09;8.772989249322563;;;8.687;100.0
15558;BME280;7880;50.110;9.372;2023-03-14T02:14:22;8.788115853775526;;;8.687;100.0
15558;BME280;7880;50.110;9.372;2023-03-14T02:19:38;8.752820447459817;;;8.687;100.0
15558;BME280;7880;50.110;9.372;2023-03-14T02:24:27;8.788115853775526;;;8.687;100.0
15558;BME280;7880;50.110;9.372;2023-03-14T02:29:30;8.732651650253683;;;8.687;100.0
15558;BME280;7880;50.110;9.372;2023-03-14T02:34:33;8.778031450515845;;;8.687;100.0
15558;BME280;7880;50.110;9.372;2023-03-14T02:39:38;8.762904847809114;;;8.687;100.0
15558;BME280;7880;50.110;9.372;2023-03-14T02:44:53;8.76794704842032;;;8.687;100.0
15558;BME280;7880;50.110;9.372;2023-03-14T02:49:46;8.803242460847832;;;8.75;100.0
15558;BME280;7880;50.110;9.372;2023-03-14T02:55:05;8.808284663787344;;;8.75;100.0
15558;BME280;7880;50.110;9.372;2023-03-14T02:59:53;8.778031450515845;;;8.75;100.0
15558;BME280;7880;50.110;9.372;2023-03-14T03:04:58;8.803242460847832;;;8.75;100.0
15558;BME280;7880;50.110;9.372;2023-03-14T03:10:03;8.808284663787344;;;8.75;100.0
15558;BME280;7880;50.110;9.372;2023-03-14T03:15:07;8.798200258199358;;;8.812;100.0
15558;BME280;7880;50.110;9.372;2023-03-14T03:20:11;8.783073652000166;;;8.812;100.0
15558;BME280;7880;50.110;9.372;2023-03-14T03:25:16;8.788115853775526;;;8.75;100.0
15558;BME280;7880;50.110;9.372;2023-03-14T03:30:21;8.778031450515845;;;8.75;100.0
15558;BME280;7880;50.110;9.372;2023-03-14T03:35:25;8.762904847809114;;;8.75;100.0
15558;BME280;7880;50.110;9.372;2023-03-14T03:40:28;8.752820447459817;;;8.75;100.0
15558;BME280;7880;50.110;9.372;2023-03-14T03:45:31;8.732651650253683;;;8.687;100.0
15558;BME280;7880;50.110;9.372;2023-03-14T03:50:36;8.762904847809114;;;8.687;100.0
15558;BME280;7880;50.110;9.372;2023-03-14T03:55:40;8.742736048274674;;;8.687;100.0
15558;BME280;7880;50.110;9.372;2023-03-14T04:00:47;8.712482857704163;;;8.687;100.0
15558;BME280;7880;50.110;9.372;2023-03-14T04:05:58;8.73769384911866;;;8.687;100.0
15558;BME280;7880;50.110;9.372;2023-03-14T04:10:55;8.697356266347924;;;8.625;100.0
15558;BME280;7880;50.110;9.372;2023-03-14T04:16:02;8.702398463175632;;;8.625;100.0
15558;BME280;7880;50.110;9.372;2023-03-14T04:21:02;8.697356266347924;;;8.625;100.0
15558;BME280;7880;50.110;9.372;2023-03-14T04:26:06;8.68222967761103;;;8.625;100.0
15558;BME280;7880;50.110;9.372;2023-03-14T04:31:10;8.742736048274674;;;8.625;100.0
15558;BME280;7880;50.110;9.372;2023-03-14T04:36:21;8.65701870220364;;;8.625;100.0
15558;BME280;7880;50.110;9.372;2023-03-14T04:41:18;8.616681156685809;;;8.562;100.0
15558;BME280;7880;50.110;9.372;2023-03-14T04:46:21;8.616681156685809;;;8.562;100.0
15558;BME280;7880;50.110;9.372;2023-03-14T04:51:27;8.596512390911812;;;8.5;100.0
15558;BME280;7880;50.110;9.372;2023-03-14T04:56:30;8.626765541319037;;;8.562;100.0
15558;BME280;7880;50.110;9.372;2023-03-14T05:01:33;8.571301440242678;;;8.5;100.0
15558;BME280;7880;50.110;9.372;2023-03-14T05:06:37;8.541048309043981;;;8.5;100.0
15558;BME280;7880;50.110;9.372;2023-03-14T05:11:40;8.515837374381954;;;8.437;100.0
15558;BME280;7880;50.110;9.372;2023-03-14T05:16:47;8.485584262391786;;;8.437;100.0
15558;BME280;7880;50.110;9.372;2023-03-14T05:21:49;8.55113268494606;;;8.5;100.0
15558;BME280;7880;50.110;9.372;2023-03-14T05:26:53;8.52592174737365;;;8.437;100.0
15558;BME280;7880;50.110;9.372;2023-03-14T05:31:10;8.566259250981966;;;8.5;100.0
15558;BME280;7880;50.110;9.372;2023-03-14T05:36:15;8.50575300255441;;;8.437;100.0
15558;BME280;7880;50.110;9.372;2023-03-14T05:41:18;8.485584262391786;;;8.437;100.0
15558;BME280;7880;50.110;9.372;2023-03-14T05:46:21;8.52592174737365;;;8.5;100.0
15558;BME280;7880;50.110;9.372;2023-03-14T05:51:28;8.510795188322664;;;8.437;100.0
15558;BME280;7880;50.110;9.372;2023-03-14T05:56:35;8.495668631891022;;;8.437;100.0
15558;BME280;7880;50.110;9.372;2023-03-14T06:01:40;8.510795188322664;;;8.5;100.0
15558;BME280;7880;50.110;9.372;2023-03-14T06:06:44;8.50575300255441;;;8.5;100.0
15558;BME280;7880;50.110;9.372;2023-03-14T06:11:49;8.541048309043981;;;8.5;100.0
15558;BME280;7880;50.110;9.372;2023-03-14T06:16:52;8.5360061215295;;;8.5;100.0
15558;BME280;7880;50.110;9.372;2023-03-14T06:21:57;8.5360061215295;;;8.5;100.0
15558;BME280;7880;50.110;9.372;2023-03-14T06:27:00;8.485584262391786;;;8.437;100.0
15558;BME280;7880;50.110;9.372;2023-03-14T06:32:05;8.420035889022984;;;8.375;100.0
15558;BME280;7880;50.110;9.372;2023-03-14T06:37:08;8.389782810211182;;;8.312;100.0
15558;BME280;7880;50.110;9.372;2023-03-14T06:42:13;8.324234508728841;;;8.312;100.0
15558;BME280;7880;50.110;9.372;2023-03-14T06:47:17;8.31415015902021;;;8.25;100.0
15558;BME280;7880;50.110;9.372;2023-03-14T06:52:20;8.273812771827215;;;8.187;100.0
15558;BME280;7880;50.110;9.372;2023-03-14T06:57:27;8.21330672596232;;;8.125;100.0
15558;BME280;7880;50.110;9.372;2023-03-14T07:02:30;8.278854944207705;;;8.125;100.0
15558;BME280;7880;50.110;9.372;2023-03-14T07:07:35;8.172969385335454;;;8.062;100.0
15558;BME280;7880;50.110;9.372;2023-03-14T07:12:37;8.248601914290338;;;8.125;100.0
15558;BME280;7880;50.110;9.372;2023-03-14T07:17:48;8.248601914290338;;;8.187;100.0
15558;BME280;7880;50.110;9.372;2023-03-14T07:22:53;8.12758989939466;;;8.062;100.0
15558;BME280;7880;50.110;9.372;2023-03-14T07:27:52;8.172969385335454;;;8.062;100.0
15558;BME280;7880;50.110;9.372;2023-03-14T07:32:55;8.208264557365329;;;8.062;100.0
15558;BME280;7880;50.110;9.372;2023-03-14T07:37:59;8.162885053089122;;;8.062;100.0
15558;BME280;7880;50.110;9.372;2023-03-14T07:43:03;8.132632063335041;;;8.062;100.0
15558;BME280;7880;50.110;9.372;2023-03-14T07:48:08;8.183053718745942;;;8.062;100.0
15558;BME280;7880;50.110;9.372;2023-03-14T07:53:11;8.188095885887742;;;8.125;100.0
15558;BME280;7880;50.110;9.372;2023-03-14T07:58:20;8.29902363664005;;;8.187;100.0
15558;BME280;7880;50.110;9.372;2023-03-14T08:03:35;8.319192333729006;;;8.187;100.0
15558;BME280;7880;50.110;9.372;2023-03-14T08:08:24;8.31415015902021;;;8.187;100.0
15558;BME280;7880;50.110;9.372;2023-03-14T08:13:28;8.238517573312857;;;8.187;100.0
15558;BME280;7880;50.110;9.372;2023-03-14T08:18:32;8.233475403260673;;;8.125;100.0
15558;BME280;7880;50.110;9.372;2023-03-14T08:23:44;8.193138053320581;;;8.125;100.0
15558;BME280;7880;50.110;9.372;2023-03-14T08:28:41;8.22339106402942;;;8.125;100.0
15558;BME280;7880;50.110;9.372;2023-03-14T08:33:44;8.183053718745942;;;8.125;100.0
15558;BME280;7880;50.110;9.372;2023-03-14T08:38:52;8.29902363664005;;;8.187;100.0
15558;BME280;7880;50.110;9.372;2023-03-14T08:44:01;8.329276684019714;;;8.312;100.0
15558;BME280;7880;50.110;9.372;2023-03-14T08:48:57;8.374656274734297;;;8.312;100.0
15558;BME280;7880;50.110;9.372;2023-03-14T08:54:01;8.409951528254897;;;8.312;100.0
15558;BME280;7880;50.110;9.372;2023-03-14T08:59:14;8.409951528254897;;;8.312;100.0
15558;BME280;7880;50.110;9.372;2023-03-14T09:04:21;8.490626446995885;;;8.375;100.0
15558;BME280;7880;50.110;9.372;2023-03-14T09:09:23;8.455331160878995;;;8.375;100.0
15558;BME280;7880;50.110;9.372;2023-03-14T09:14:21;8.510795188322664;;;8.375;100.0
15558;BME280;7880;50.110;9.372;2023-03-14T09:19:24;8.576343629794428;;;8.437;100.0
15558;BME280;7880;50.110;9.372;2023-03-14T09:24:41;8.490626446995885;;;8.437;100.0
15558;BME280;7880;50.110;9.372;2023-03-14T09:29:34;8.490626446995885;;;8.375;100.0
15558;BME280;7880;50.110;9.372;2023-03-14T09:34:38;8.546090496849502;;;8.437;100.0
15558;BME280;7880;50.110;9.372;2023-03-14T09:39:39;8.616681156685809;;;8.5;100.0
15558;BME280;7880;50.110;9.372;2023-03-14T09:44:53;8.662060896703043;;;8.562;100.0
15558;BME280;7880;50.110;9.372;2023-03-14T09:49:55;8.808284663787344;;;8.687;100.0
15558;BME280;7880;50.110;9.372;2023-03-14T09:54:59;8.76794704842032;;;8.687;100.0
15558;BME280;7880;50.110;9.372;2023-03-14T10:00:03;8.76794704842032;;;8.687;100.0
15558;BME280;7880;50.110;9.372;2023-03-14T10:10:26;8.878875535499537;;;8.812;100.0
15558;BME280;7880;50.110;9.372;2023-03-14T10:15:38;8.974677524063736;;;8.875;100.0
15558;BME280;7880;50.110;9.372;2023-03-14T10:20:44;8.959550887305522;;;8.875;100.0
15558;BME280;7880;50.110;9.372;2023-03-14T10:25:59;9.060395181836792;;;8.937;100.0
15558;BME280;7880;50.110;9.372;2023-03-14T10:30:57;9.050310747144977;;;9.0;100.0
15558;BME280;7880;50.110;9.372;2023-03-14T10:35:28;9.12090181443491;;;9.062;100.0
15558;BME280;7880;50.110;9.372;2023-03-14T10:40:38;9.161239592783385;;;9.062;100.0
15558;BME280;7880;50.110;9.372;2023-03-14T10:45:37;9.12090181443491;;;9.062;100.0
15558;BME280;7880;50.110;9.372;2023-03-14T10:51:19;9.070479617692763;;;9.0;100.0
15558;BME280;7880;50.110;9.372;2023-03-14T10:56:19;9.095690712425858;;;9.0;100.0
15558;BME280;7880;50.110;9.372;2023-03-14T11:01:32;9.035184097290038;;;8.937;100.0
15558;BME280;7880;50.110;9.372;2023-03-14T11:06:33;9.090648492897163;;;8.937;100.0
15558;BME280;7880;50.110;9.372;2023-03-14T11:11:47;8.929297621647128;;;8.875;100.0
15558;BME280;7880;50.110;9.372;2023-03-14T11:16:46;9.015015234891326;;;8.937;100.0
15558;BME280;7880;50.110;9.372;2023-03-14T11:21:44;8.894002158287913;;;8.875;100.0
15558;BME280;7880;50.110;9.372;2023-03-14T11:26:50;8.894002158287913;;;8.75;100.0
15558;BME280;7880;50.110;9.372;2023-03-14T11:31:49;8.843580092513003;;;8.75;100.0
15558;BME280;7880;50.110;9.372;2023-03-14T11:36:57;8.83349568285048;;;8.75;100.0
15558;BME280;7880;50.110;9.372;2023-03-14T11:41:59;8.828453478455776;;;8.75;100.0
15558;BME280;7880;50.110;9.372;2023-03-14T11:47:05;8.778031450515845;;;8.687;100.0
15558;BME280;7880;50.110;9.372;2023-03-14T11:52:14;8.858706709189573;;;8.75;100.0
15558;BME280;7880;50.110;9.372;2023-03-14T11:57:16;8.747778247721726;;;8.625;100.0
15558;BME280;7880;50.110;9.372;2023-03-14T12:02:22;8.757862647488945;;;8.625;100.0
15558;BME280;7880;50.110;9.372;2023-03-14T12:07:23;8.828453478455776;;;8.687;100.0
15558;BME280;7880;50.110;9.372;2023-03-14T12:12:27;8.798200258199358;;;8.687;100.0
15558;BME280;7880;50.110;9.372;2023-03-14T12:17:37;8.722567253396846;;;8.625;100.0
15558;BME280;7880;50.110;9.372;2023-03-14T12:22:36;8.712482857704163;;;8.625;100.0
15558;BME280;7880;50.110;9.372;2023-03-14T12:27:47;8.772989249322563;;;8.687;100.0
15558;BME280;7880;50.110;9.372;2023-03-14T12:32:41;8.727609451679745;;;8.687;100.0
15558;BME280;7880;50.110;9.372;2023-03-14T12:37:45;8.813326867017896;;;8.75;100.0
15558;BME280;7880;50.110;9.372;2023-03-14T12:42:57;8.868791121762479;;;8.812;100.0
15558;BME280;7880;50.110;9.372;2023-03-14T12:47:56;8.838537887536223;;;8.812;100.0
15558;BME280;7880;50.110;9.372;2023-03-14T12:54:39;8.843580092513003;;;8.75;100.0
15558;BME280;7880;50.110;9.372;2023-03-14T12:59:30;7.542700857296586;;;7.75;100.0
15558;BME280;7880;50.110;9.372;2023-03-14T13:04:31;7.03344720826135;;;7.0;100.0
15558;BME280;7880;50.110;9.372;2023-03-14T13:09:52;7.013278808031464;;;6.875;100.0
15558;BME280;7880;50.110;9.372;2023-03-14T13:14:41;7.013278808031464;;;6.875;100.0
15558;BME280;7880;50.110;9.372;2023-03-14T13:19:43;6.92252106462256;;;6.812;100.0
15558;BME280;7880;50.110;9.372;2023-03-14T13:25:10;6.801510886760662;;;6.75;100.0
15558;BME280;7880;50.110;9.372;2023-03-14T13:30:15;6.781342540081823;;;6.687;100.0
15558;BME280;7880;50.110;9.372;2023-03-14T13:35:21;6.680500876536826;;;6.625;100.0
15558;BME280;7880;50.110;9.372;2023-03-14T13:40:28;6.7510900287947155;;;6.625;100.0
15558;BME280;7880;50.110;9.372;2023-03-14T13:45:31;6.746047944598831;;;6.687;100.0
15558;BME280;7880;50.110;9.372;2023-03-14T13:50:30;6.730921693757409;;;6.687;100.0
15558;BME280;7880;50.110;9.372;2023-03-14T13:55:36;6.786384626314975;;;6.75;100.0
15558;BME280;7880;50.110;9.372;2023-03-14T14:00:38;6.791426712839166;;;6.75;100.0
15558;BME280;7880;50.110;9.372;2023-03-14T14:05:44;6.872100136807421;;;6.812;100.0
15558;BME280;7880;50.110;9.372;2023-03-14T14:10:59;6.957815731409937;;;6.875;100.0
15558;BME280;7880;50.110;9.372;2023-03-14T14:15:55;6.983026216417784;;;6.937;100.0
15558;BME280;7880;50.110;9.372;2023-03-14T14:20:58;7.02336300756433;;;7.0;100.0
15558;BME280;7880;50.110;9.372;2023-03-14T14:26:05;7.073784022690961;;;7.062;100.0
15558;BME280;7880;50.110;9.372;2023-03-14T14:31:18;7.02336300756433;;;7.0;100.0
15558;BME280;7880;50.110;9.372;2023-03-14T14:36:17;6.967899924539961;;;7.0;100.0
15558;BME280;7880;50.110;9.372;2023-03-14T14:41:15;6.867058045626618;;;6.812;100.0
15558;BME280;7880;50.110;9.372;2023-03-14T14:46:23;6.710753363376716;;;6.687;100.0
15558;BME280;7880;50.110;9.372;2023-03-14T14:51:33;6.710753363376716;;;6.687;100.0
15558;BME280;7880;50.110;9.372;2023-03-14T14:56:29;6.509070315683493;;;6.5;100.0
15558;BME280;7880;50.110;9.372;2023-03-14T15:01:37;6.367892459366703;;;6.312;100.0
15558;BME280;7880;50.110;9.372;2023-03-14T15:06:45;6.226714831223944;;;6.187;100.0
15558;BME280;7880;50.110;9.372;2023-03-14T15:11:46;5.994780651765177;;;6.0;100.0
15558;BME280;7880;50.110;9.372;2023-03-14T15:16:49;5.954444335593143;;;5.875;100.0
15558;BME280;7880;50.110;9.372;2023-03-14T15:21:55;5.813267375674331;;;5.75;100.0
15558;BME280;7880;50.110;9.372;2023-03-14T15:27:08;5.702342781523475;;;5.687;100.0
15558;BME280;7880;50.110;9.372;2023-03-14T15:32:08;5.813267375674331;;;5.687;100.0
15558;BME280;7880;50.110;9.372;2023-03-14T15:37:12;5.828393467608839;;;5.687;100.0
15558;BME280;7880;50.110;9.372;2023-03-14T15:41:34;5.641838516813005;;;5.625;100.0
15558;BME280;7880;50.110;9.372;2023-03-14T15:46:38;5.55108219832764;;;5.562;100.0
15558;BME280;7880;50.110;9.372;2023-03-14T15:51:42;5.586376310978085;;;5.5;100.0
15558;BME280;7880;50.110;9.372;2023-03-14T15:56:49;5.450241955049568;;;5.375;100.0
15558;BME280;7880;50.110;9.372;2023-03-14T16:01:50;5.460325974138686;;;5.375;100.0
15558;BME280;7880;50.110;9.372;2023-03-14T16:06:54;5.490578038390959;;;5.375;100.0
15558;BME280;7880;50.110;9.372;2023-03-14T16:12:05;5.273771809437312;;;5.25;100.0
15558;BME280;7880;50.110;9.372;2023-03-14T16:17:03;5.18301587337628;;;5.125;100.0
15558;BME280;7880;50.110;9.372;2023-03-14T16:22:10;5.218309837306151;;;5.125;100.0
15558;BME280;7880;50.110;9.372;2023-03-14T16:27:15;5.092260031611659;;;5.0;100.0
15558;BME280;7880;50.110;9.372;2023-03-14T16:32:26;4.946042484889039;;;4.937;100.0
15558;BME280;7880;50.110;9.372;2023-03-14T16:37:22;4.542685004236409;;;4.562;100.0
15558;BME280;7880;50.110;9.372;2023-03-14T16:42:32;4.295629467163235;;;4.187;100.0
15558;BME280;7880;50.110;9.372;2023-03-14T16:47:30;4.341006962402025;;;4.187;100.0
15558;BME280;7880;50.110;9.372;2023-03-14T16:52:33;4.290587524703005;;;4.187;100.0
15558;BME280;7880;50.110;9.372;2023-03-14T16:57:41;4.366216692165471;;;4.25;100.0
15558;BME280;7880;50.110;9.372;2023-03-14T17:02:54;4.310755296290154;;;4.187;100.0
15558;BME280;7880;50.110;9.372;2023-03-14T17:07:47;4.275461699068546;;;4.187;100.0
15558;BME280;7880;50.110;9.372;2023-03-14T17:12:50;4.42672007328365;;;4.25;100.0
15558;BME280;7880;50.110;9.372;2023-03-14T17:17:54;4.361174745630706;;;4.25;100.0
15558;BME280;7880;50.110;9.372;2023-03-14T17:22:58;4.376300586108118;;;4.25;100.0
15558;BME280;7880;50.110;9.372;2023-03-14T17:28:02;4.351090853434289;;;4.25;100.0
15558;BME280;7880;50.110;9.372;2023-03-14T17:33:05;4.411594224075088;;;4.312;100.0
15558;BME280;7880;50.110;9.372;2023-03-14T17:38:09;4.467055683978833;;;4.375;100.0
15558;BME280;7880;50.110;9.372;2023-03-14T17:43:13;4.42672007328365;;;4.312;100.0
15558;BME280;7880;50.110;9.372;2023-03-14T17:48:19;4.1897487366164565;;;4.187;100.0
15558;BME280;7880;50.110;9.372;2023-03-14T17:53:25;4.285545582533814;;;4.187;100.0
15558;BME280;7880;50.110;9.372;2023-03-14T17:58:29;4.235126176849008;;;4.187;100.0
15558;BME280;7880;50.110;9.372;2023-03-14T18:03:32;4.280503640655661;;;4.187;100.0
15558;BME280;7880;50.110;9.372;2023-03-14T18:08:37;4.139329386228928;;;4.125;100.0
15558;BME280;7880;50.110;9.372;2023-03-14T18:13:40;3.3679169544018803;;;3.5;100.0
15558;BME280;7880;50.110;9.372;2023-03-14T18:18:45;2.6822227344848217;;;2.687;100.0
15558;BME280;7880;50.110;9.372;2023-03-14T18:23:50;2.3746704580786173;;;2.312;100.0
15558;BME280;7880;50.110;9.372;2023-03-14T18:28:53;2.3091266703093423;;;2.125;100.0
15558;BME280;7880;50.110;9.372;2023-03-14T18:33:57;2.66709718737402;;;2.375;100.0
15558;BME280;7880;50.110;9.372;2023-03-14T18:39:02;2.7578505093290007;;;2.562;100.0
15558;BME280;7880;50.110;9.372;2023-03-14T18:44:10;2.6923064340138807;;;2.5;100.0
15558;BME280;7880;50.110;9.372;2023-03-14T18:49:20;2.8435620666481554;;;2.625;100.0
15558;BME280;7880;50.110;9.372;2023-03-14T18:54:17;2.8536457848036663;;;2.687;100.0
15558;BME280;7880;50.110;9.372;2023-03-14T18:59:21;2.86372950412333;;;2.687;100.0
15558;BME280;7880;50.110;9.372;2023-03-14T19:04:27;2.914148118183948;;;2.75;100.0
15558;BME280;7880;50.110;9.372;2023-03-14T19:09:32;2.8990225309098605;;;2.75;100.0
15558;BME280;7880;50.110;9.372;2023-03-14T19:14:36;2.7679342175892088;;;2.687;100.0
15558;BME280;7880;50.110;9.372;2023-03-14T19:19:42;2.6923064340138807;;;2.562;100.0
15558;BME280;7880;50.110;9.372;2023-03-14T19:24:46;2.6822227344848217;;;2.562;100.0
15558;BME280;7880;50.110;9.372;2023-03-14T19:29:52;2.6771808851568495;;;2.562;100.0
15558;BME280;7880;50.110;9.372;2023-03-14T19:34:58;2.818352776352549;;;2.625;100.0
15558;BME280;7880;50.110;9.372;2023-03-14T19:40:06;2.818352776352549;;;2.687;100.0
15558;BME280;7880;50.110;9.372;2023-03-14T19:45:08;2.7679342175892088;;;2.687;100.0
15558;BME280;7880;50.110;9.372;2023-03-14T19:50:12;2.909106255468214;;;2.75;100.0
15558;BME280;7880;50.110;9.372;2023-03-14T19:55:16;2.803227205667645;;;2.687;100.0
15558;BME280;7880;50.110;9.372;2023-03-14T20:00:21;2.9292737080773805;;;2.75;100.0
15558;BME280;7880;50.110;9.372;2023-03-14T20:05:26;3.0049016968347133;;;2.875;100.0
15558;BME280;7880;50.110;9.372;2023-03-14T20:10:30;2.94944116534316;;;2.875;100.0
15558;BME280;7880;50.110;9.372;2023-03-14T20:15:34;2.8788550852856134;;;2.812;100.0
15558;BME280;7880;50.110;9.372;2023-03-14T20:20:40;2.9292737080773805;;;2.812;100.0
15558;BME280;7880;50.110;9.372;2023-03-14T20:25:56;3.030111040972406;;;2.875;100.0
15558;BME280;7880;50.110;9.372;2023-03-14T20:30:48;3.0603622635419017;;;3.0;100.0
15558;BME280;7880;50.110;9.372;2023-03-14T20:35:56;3.0603622635419017;;;2.937;100.0
15558;BME280;7880;50.110;9.372;2023-03-14T20:40:59;3.0049016968347133;;;2.937;100.0
15558;BME280;7880;50.110;9.372;2023-03-14T20:45:51;2.9998598288802896;;;2.937;100.0
15558;BME280;7880;50.110;9.372;2023-03-14T20:50:54;2.9847342267632486;;;2.937;100.0
15558;BME280;7880;50.110;9.372;2023-03-14T20:55:57;2.7780179270135705;;;2.812;100.0
15558;BME280;7880;50.110;9.372;2023-03-14T21:01:01;2.3192103267647326;;;2.375;100.0
15558;BME280;7880;50.110;9.372;2023-03-14T21:06:13;1.7898199366463814;;;1.812;100.0
15558;BME280;7880;50.110;9.372;2023-03-14T21:11:14;1.6133571863174438;;;1.562;100.0
15558;BME280;7880;50.110;9.372;2023-03-14T21:16:16;1.9511576203687582;;;1.687;100.0
15558;BME280;7880;50.110;9.372;2023-03-14T21:21:21;2.162913782527903;;;1.937;100.0
15558;BME280;7880;50.110;9.372;2023-03-14T21:26:25;2.1326628707873168;;;2.0;100.0
15558;BME280;7880;50.110;9.372;2023-03-14T21:31:31;2.152830144116888;;;2.062;100.0
15558;BME280;7880;50.110;9.372;2023-03-14T21:36:36;2.1477883253479377;;;2.0;100.0
15558;BME280;7880;50.110;9.372;2023-03-14T21:41:45;2.193164704745868;;;2.125;100.0
15558;BME280;7880;50.110;9.372;2023-03-14T21:46:50;2.2082901697838677;;;2.125;100.0
15558;BME280;7880;50.110;9.372;2023-03-14T21:51:55;2.12762105318252;;;2.062;100.0
15558;BME280;7880;50.110;9.372;2023-03-14T21:57:29;2.1477883253479377;;;2.062;100.0
15558;BME280;7880;50.110;9.372;2023-03-14T22:02:30;1.9410740064049605;;;1.875;100.0
15558;BME280;7880;50.110;9.372;2023-03-14T22:07:34;1.9914920878654812;;;1.937;100.0
15558;BME280;7880;50.110;9.372;2023-03-14T22:12:42;2.0772028931416573;;;2.0;100.0
15558;BME280;7880;50.110;9.372;2023-03-14T22:17:44;2.117537418846041;;;2.062;100.0
15558;BME280;7880;50.110;9.372;2023-03-14T22:22:51;2.2587084054946898;;;2.125;100.0
15558;BME280;7880;50.110;9.372;2023-03-14T22:27:54;2.3897959545487537;;;2.312;100.0
15558;BME280;7880;50.110;9.372;2023-03-14T22:32:58;2.3091266703093423;;;2.312;100.0
15558;BME280;7880;50.110;9.372;2023-03-14T22:38:02;2.3948377872875426;;;2.312;100.0
15558;BME280;7880;50.110;9.372;2023-03-14T22:43:08;2.3645867952203843;;;2.312;100.0
15558;BME280;7880;50.110;9.372;2023-03-14T22:48:14;2.334335813630605;;;2.25;100.0
15558;BME280;7880;50.110;9.372;2023-03-14T22:53:19;2.2990430150181056;;;2.187;100.0
15558;BME280;7880;50.110;9.372;2023-03-14T22:58:25;2.2234156374412124;;;2.125;100.0
15558;BME280;7880;50.110;9.372;2023-03-14T23:03:30;2.2133319920452776;;;2.125;100.0
15558;BME280;7880;50.110;9.372;2023-03-14T23:08:34;2.2234156374412124;;;2.125;100.0
15558;BME280;7880;50.110;9.372;2023-03-14T23:13:42;2.082244707836071;;;2.062;100.0
15558;BME280;7880;50.110;9.372;2023-03-14T23:18:48;2.112495602114359;;;2.062;100.0
15558;BME280;7880;50.110;9.372;2023-03-14T23:23:49;2.1427465068700258;;;2.062;100.0
15558;BME280;7880;50.110;9.372;2023-03-14T23:28:53;1.9763666603714227;;;2.0;100.0
15558;BME280;7880;50.110;9.372;2023-03-14T23:33:57;2.0318265739886554;;;2.0;100.0
15558;BME280;7880;50.110;9.372;2023-03-14T23:39:13;2.10241196952411;;;2.0;100.0
15558;BME280;7880;50.110;9.372;2023-03-14T23:44:06;1.9763666603714227;;;1.937;100.0
15558;BME280;7880;50.110;9.372;2023-03-14T23:49:12;1.9864502784097566;;;2.0;100.0
15558;BME280;7880;50.110;9.372;2023-03-14T23:54:16;1.870488741254667;;;1.875;100.0
15558;BME280;7880;50.110;9.372;2023-03-14T23:59:19;2.0217429507116322;;;1.937;100.0
